TAMU Turf Lab's Hourly Summary for Thursday, May 10, 2018
Hour Temp
(f)
RH
(%)
Solar Rad.
(MJ/m2)
Rainfall
(in)
Wind
(mph)
5/10/2018 12:00 AM 68 53 0 0 4.58
5/10/2018 1:00 AM 67 60 0 0 5.03
5/10/2018 2:00 AM 65 68 0 0 3.74
5/10/2018 3:00 AM 64 76 0 0 3.58
5/10/2018 4:00 AM 64 82 0 0 3.13
5/10/2018 5:00 AM 62 85 0 0 2.68
5/10/2018 6:00 AM 62 88 0 0 2.91
5/10/2018 7:00 AM 62 90 0.02 0 3.09
5/10/2018 8:00 AM 62 91 0.32 0 4.03
5/10/2018 9:00 AM 65 90 0.79 0 5.17
5/10/2018 10:00 AM 68 81 1.23 0 7.36
5/10/2018 11:00 AM 71 65 1.65 0 8.25
5/10/2018 12:00 PM 76 47 2.52 0 9.85
5/10/2018 1:00 PM 80 44 2.68 0 9.67
5/10/2018 2:00 PM 81 44 3.09 0 10.37
5/10/2018 3:00 PM 83 41 2.76 0 10.44
5/10/2018 4:00 PM 84 40 2.56 0 10.77
5/10/2018 5:00 PM 84 40 1.93 0 9.16
5/10/2018 6:00 PM 84 40 0.98 0 7.79
5/10/2018 7:00 PM 84 43 0.87 0 8.88
5/10/2018 8:00 PM 81 45 0.35 0 7.99
5/10/2018 9:00 PM 78 50 0.01 0 7.05
5/10/2018 10:00 PM 76 55 0 0 7.24
5/10/2018 11:00 PM 74 58 0 0 7.17
Data Summary 72 61 21.76 0.00 6.66